Gambell, AK

10:22 AM AKDT on October 24, 2014 (GMT -0800)
Tin City LRRS | Change Station
CLOSE
Current Station
Airport
Location: Tin City,
Elevation: 272 ft
Nearby Weather Stations

Elev 272 ft 65.56 °N, 167.92 °W | Updated 27 minutes ago

Mostly Cloudy
Mostly Cloudy
33 °F
Feels Like 21 °F
N
22
Wind Variable Wind from SW

Today
High -- | Low -- °F
--% Chance of Precip.
Yesterday
High -- | Low -- °F
Precip. -- in
10:44 AM 7:36 PM
New Moon, 1% visible
Pressure 29.61 in
Visibility 10.0 miles
Clouds Mostly Cloudy 500 ft
Windchill 21 °F
Dew Point 33 °F
Humidity 100%
Rainfall 0.02 in
Snow Depth Not available.
UV 0 out of 12
Pollen Not available.
Air Quality Not available.
Flu Activity Not available.
METAR PATC 241755Z AUTO 22019KT 10SM BKN005 01/01 A2959 RMK AO2 PK WND 21027/1741 RAB1705E1743SHRAB1743E1755 SLP025 P0002 60002 T00080008 10006 21012 54000

More Conditions Fewer Conditions

Pressure 29.61 in
Visibility 10.0 miles
Clouds Mostly Cloudy 500 ft
Windchill 21 °F
Dew Point 33 °F
Humidity 100%
Rainfall 0.02 in
Snow Depth Not available.
UV 0 out of 12
Pollen Not available.
Air Quality Not available.
Flu Activity Not available.
METAR PATC 241755Z AUTO 22019KT 10SM BKN005 01/01 A2959 RMK AO2 PK WND 21027/1741 RAB1705E1743SHRAB1743E1755 SLP025 P0002 60002 T00080008 10006 21012 54000

More Conditions Fewer Conditions

10-Day Weather Forecast

Almanac

Astronomy

Oct. 24, 2014 Rise Set
Actual Time 10:44 AM AKDT 7:36 PM AKDT
Civil Twilight 9:53 AM AKDT 8:26 PM AKDT
Nautical Twilight 8:58 AM AKDT 9:21 PM AKDT
Astronomical Twilight 8:04 AM AKDT 10:16 PM AKDT
Moon 11:53 AM AKDT 8:04 PM AKDT
Length of Visible Light 10h 32m
Length of Day
8h 52m
Tomorrow will be 6m 21s shorter.
New Moon, 1% of the Moon is Illuminated
Today
New Moon
Oct 30
First Quarter
Nov 6
Full
Nov 14
Last Quarter
Nov 22
New

Today's Extremes

State Highs State Lows

Community

WunderPhotos

Upload Photos

1,764,631 photos uploaded!

WunderBlogs® & News

Nearby

Snow Depth

Station Depth Elevation
Rocky Point 4 in 500 ft
Pargon Creek 0 in 300 ft
Gobblers Knob 1 in 2030 ft
Coldfoot 5 in 1040 ft
Susitna Valley High 0 in 375 ft

Earthquake Activity

City Distance Mag. Time & Date
No recent earthquake activity has been reported nearby.
Minimum magnitude displayed is 2.5.

Coastal Water Temperatures

Place Temperature
No Stations Reporting

Nearby Weather Stations